sensor_id;sensor_type;location;lat;lon;timestamp;pressure;altitude;pressure_sealevel;temperature;humidity
6942;BME280;3510;43.200;27.920;2022-12-20T00:01:19;103418.25;;;6.20;48.52
6942;BME280;3510;43.200;27.920;2022-12-20T00:03:48;103410.31;;;6.58;48.07
6942;BME280;3510;43.200;27.920;2022-12-20T00:06:15;103422.94;;;6.76;47.01
6942;BME280;3510;43.200;27.920;2022-12-20T00:08:42;103414.09;;;6.32;48.62
6942;BME280;3510;43.200;27.920;2022-12-20T00:11:11;103385.44;;;6.30;47.80
6942;BME280;3510;43.200;27.920;2022-12-20T00:13:39;103417.72;;;7.05;46.54
6942;BME280;3510;43.200;27.920;2022-12-20T00:16:16;103328.19;;;6.26;47.42
6942;BME280;3510;43.200;27.920;2022-12-20T00:18:45;103394.84;;;6.90;47.33
6942;BME280;3510;43.200;27.920;2022-12-20T00:21:13;103387.88;;;6.00;48.25
6942;BME280;3510;43.200;27.920;2022-12-20T00:23:54;103414.00;;;6.84;47.30
6942;BME280;3510;43.200;27.920;2022-12-20T00:26:39;103417.19;;;6.83;47.98
6942;BME280;3510;43.200;27.920;2022-12-20T00:29:07;103386.06;;;7.29;46.10
6942;BME280;3510;43.200;27.920;2022-12-20T00:31:48;103416.06;;;6.46;48.30
6942;BME280;3510;43.200;27.920;2022-12-20T00:34:17;103378.59;;;6.40;47.83
6942;BME280;3510;43.200;27.920;2022-12-20T00:36:45;103378.75;;;6.47;48.39
6942;BME280;3510;43.200;27.920;2022-12-20T00:39:26;103403.53;;;7.11;47.54
6942;BME280;3510;43.200;27.920;2022-12-20T00:41:56;103420.72;;;6.96;47.06
6942;BME280;3510;43.200;27.920;2022-12-20T00:44:25;103371.59;;;6.32;48.81
6942;BME280;3510;43.200;27.920;2022-12-20T00:46:53;103380.91;;;6.98;47.40
6942;BME280;3510;43.200;27.920;2022-12-20T00:49:20;103363.91;;;6.90;47.39
6942;BME280;3510;43.200;27.920;2022-12-20T00:52:00;103384.47;;;7.06;47.25
6942;BME280;3510;43.200;27.920;2022-12-20T00:54:27;103346.72;;;6.74;47.34
6942;BME280;3510;43.200;27.920;2022-12-20T01:00:20;103364.81;;;7.14;47.10
6942;BME280;3510;43.200;27.920;2022-12-20T01:03:01;103371.88;;;7.11;47.57
6942;BME280;3510;43.200;27.920;2022-12-20T01:05:28;103354.44;;;6.46;48.56
6942;BME280;3510;43.200;27.920;2022-12-20T01:07:55;103342.38;;;6.79;47.63
6942;BME280;3510;43.200;27.920;2022-12-20T01:10:22;103334.81;;;7.88;44.91
6942;BME280;3510;43.200;27.920;2022-12-20T01:13:03;103376.94;;;8.27;44.78
6942;BME280;3510;43.200;27.920;2022-12-20T01:18:55;103378.13;;;8.23;44.32
6942;BME280;3510;43.200;27.920;2022-12-20T01:21:27;103334.78;;;7.57;45.62
6942;BME280;3510;43.200;27.920;2022-12-20T01:24:00;103364.56;;;7.79;46.46
6942;BME280;3510;43.200;27.920;2022-12-20T01:26:41;103310.47;;;7.08;46.66
6942;BME280;3510;43.200;27.920;2022-12-20T01:29:21;103350.25;;;7.36;47.03
6942;BME280;3510;43.200;27.920;2022-12-20T01:32:02;103332.53;;;7.10;47.47
6942;BME280;3510;43.200;27.920;2022-12-20T01:37:48;103332.16;;;7.01;47.79
6942;BME280;3510;43.200;27.920;2022-12-20T01:40:29;103305.00;;;6.86;47.66
6942;BME280;3510;43.200;27.920;2022-12-20T01:43:11;103300.78;;;7.40;47.03
6942;BME280;3510;43.200;27.920;2022-12-20T01:45:40;103323.09;;;7.20;47.41
6942;BME280;3510;43.200;27.920;2022-12-20T01:48:08;103315.44;;;8.05;45.79
6942;BME280;3510;43.200;27.920;2022-12-20T01:50:52;103292.91;;;8.18;44.59
6942;BME280;3510;43.200;27.920;2022-12-20T01:53:53;103328.75;;;7.98;44.97
6942;BME280;3510;43.200;27.920;2022-12-20T01:56:22;103317.47;;;7.89;45.66
6942;BME280;3510;43.200;27.920;2022-12-20T01:58:50;103313.50;;;8.28;44.72
6942;BME280;3510;43.200;27.920;2022-12-20T02:01:25;103297.41;;;8.39;43.67
6942;BME280;3510;43.200;27.920;2022-12-20T02:03:53;103294.94;;;8.64;43.60
6942;BME280;3510;43.200;27.920;2022-12-20T02:06:35;103295.75;;;7.95;44.68
6942;BME280;3510;43.200;27.920;2022-12-20T02:22:04;103280.63;;;8.01;44.73
6942;BME280;3510;43.200;27.920;2022-12-20T02:25:14;103274.13;;;7.41;45.65
6942;BME280;3510;43.200;27.920;2022-12-20T02:28:00;103285.59;;;7.88;45.80
6942;BME280;3510;43.200;27.920;2022-12-20T02:46:28;103281.00;;;7.73;46.33
6942;BME280;3510;43.200;27.920;2022-12-20T02:49:01;103224.81;;;7.34;45.92
6942;BME280;3510;43.200;27.920;2022-12-20T02:51:46;103272.78;;;7.56;46.36
6942;BME280;3510;43.200;27.920;2022-12-20T02:54:29;103238.72;;;7.14;46.75
6942;BME280;3510;43.200;27.920;2022-12-20T02:57:15;103241.44;;;6.67;48.06
6942;BME280;3510;43.200;27.920;2022-12-20T03:00:03;103243.72;;;7.50;46.75
6942;BME280;3510;43.200;27.920;2022-12-20T03:12:03;103229.13;;;7.17;47.75
6942;BME280;3510;43.200;27.920;2022-12-20T03:14:44;103270.72;;;7.40;47.86
6942;BME280;3510;43.200;27.920;2022-12-20T03:17:25;103148.97;;;6.38;48.17
6942;BME280;3510;43.200;27.920;2022-12-20T03:20:06;103233.91;;;7.15;47.89
6942;BME280;3510;43.200;27.920;2022-12-20T03:22:47;103242.88;;;7.63;47.43
6942;BME280;3510;43.200;27.920;2022-12-20T03:25:28;103266.38;;;8.07;46.53
6942;BME280;3510;43.200;27.920;2022-12-20T03:31:07;103239.56;;;7.38;47.47
6942;BME280;3510;43.200;27.920;2022-12-20T03:33:48;103259.03;;;7.65;47.67
6942;BME280;3510;43.200;27.920;2022-12-20T03:36:15;103205.00;;;6.93;48.29
6942;BME280;3510;43.200;27.920;2022-12-20T03:38:56;103250.38;;;7.08;49.40
6942;BME280;3510;43.200;27.920;2022-12-20T03:41:36;103268.53;;;6.94;48.58
6942;BME280;3510;43.200;27.920;2022-12-20T03:44:17;103196.94;;;6.65;48.77
6942;BME280;3510;43.200;27.920;2022-12-20T03:50:10;103196.72;;;6.82;48.20
6942;BME280;3510;43.200;27.920;2022-12-20T03:52:38;103240.03;;;7.54;47.23
6942;BME280;3510;43.200;27.920;2022-12-20T03:55:07;103258.41;;;6.81;48.00
6942;BME280;3510;43.200;27.920;2022-12-20T03:57:34;103179.75;;;7.78;46.50
6942;BME280;3510;43.200;27.920;2022-12-20T04:00:02;103255.47;;;8.63;44.38
6942;BME280;3510;43.200;27.920;2022-12-20T04:02:29;103239.63;;;7.82;46.82
6942;BME280;3510;43.200;27.920;2022-12-20T04:04:56;103256.22;;;7.87;46.58
6942;BME280;3510;43.200;27.920;2022-12-20T04:07:25;103262.44;;;7.65;46.92
6942;BME280;3510;43.200;27.920;2022-12-20T04:09:52;103272.13;;;7.38;47.85
6942;BME280;3510;43.200;27.920;2022-12-20T04:12:20;103233.69;;;7.14;47.84
6942;BME280;3510;43.200;27.920;2022-12-20T04:14:47;103200.94;;;6.70;49.63
6942;BME280;3510;43.200;27.920;2022-12-20T04:17:14;103263.19;;;7.59;49.42
6942;BME280;3510;43.200;27.920;2022-12-20T04:19:41;103212.13;;;6.90;49.71
6942;BME280;3510;43.200;27.920;2022-12-20T04:22:08;103240.06;;;7.12;49.92
6942;BME280;3510;43.200;27.920;2022-12-20T04:24:37;103260.84;;;7.47;49.27
6942;BME280;3510;43.200;27.920;2022-12-20T04:27:04;103224.38;;;6.94;49.88
6942;BME280;3510;43.200;27.920;2022-12-20T04:29:32;103262.97;;;7.02;49.69
6942;BME280;3510;43.200;27.920;2022-12-20T04:31:59;103271.41;;;7.58;48.82
6942;BME280;3510;43.200;27.920;2022-12-20T04:34:26;103240.31;;;7.32;48.21
6942;BME280;3510;43.200;27.920;2022-12-20T04:36:54;103266.94;;;7.86;47.83
6942;BME280;3510;43.200;27.920;2022-12-20T04:39:21;103232.00;;;7.75;47.20
6942;BME280;3510;43.200;27.920;2022-12-20T04:41:51;103251.47;;;8.84;44.87
6942;BME280;3510;43.200;27.920;2022-12-20T04:44:31;103272.34;;;7.89;45.79
6942;BME280;3510;43.200;27.920;2022-12-20T04:46:58;103252.81;;;7.87;45.75
6942;BME280;3510;43.200;27.920;2022-12-20T04:49:25;103265.03;;;7.91;46.24
6942;BME280;3510;43.200;27.920;2022-12-20T04:51:52;103264.66;;;7.51;46.13
6942;BME280;3510;43.200;27.920;2022-12-20T04:54:39;103232.03;;;7.20;46.86
6942;BME280;3510;43.200;27.920;2022-12-20T04:57:07;103253.88;;;7.39;46.80
6942;BME280;3510;43.200;27.920;2022-12-20T04:59:35;103248.25;;;7.16;48.02
6942;BME280;3510;43.200;27.920;2022-12-20T05:02:02;103237.75;;;6.76;48.41
6942;BME280;3510;43.200;27.920;2022-12-20T05:04:29;103234.09;;;6.98;47.93
6942;BME280;3510;43.200;27.920;2022-12-20T05:06:59;103235.50;;;6.48;48.62
6942;BME280;3510;43.200;27.920;2022-12-20T05:09:26;103217.56;;;7.30;47.06
6942;BME280;3510;43.200;27.920;2022-12-20T05:11:53;103231.97;;;7.25;46.76
6942;BME280;3510;43.200;27.920;2022-12-20T05:14:22;103273.69;;;7.74;46.43
6942;BME280;3510;43.200;27.920;2022-12-20T05:16:49;103259.03;;;7.96;47.03
6942;BME280;3510;43.200;27.920;2022-12-20T05:19:16;103235.25;;;7.87;45.75
6942;BME280;3510;43.200;27.920;2022-12-20T05:21:43;103226.75;;;7.06;48.37
6942;BME280;3510;43.200;27.920;2022-12-20T05:24:28;103259.09;;;7.22;47.38
6942;BME280;3510;43.200;27.920;2022-12-20T05:27:12;103260.50;;;7.57;47.02
6942;BME280;3510;43.200;27.920;2022-12-20T05:29:40;103261.88;;;7.55;46.47
6942;BME280;3510;43.200;27.920;2022-12-20T05:32:07;103266.41;;;7.21;47.99
6942;BME280;3510;43.200;27.920;2022-12-20T05:34:34;103266.34;;;6.84;48.77
6942;BME280;3510;43.200;27.920;2022-12-20T05:37:01;103257.13;;;7.69;47.31
6942;BME280;3510;43.200;27.920;2022-12-20T05:39:28;103214.88;;;7.60;46.53
6942;BME280;3510;43.200;27.920;2022-12-20T05:41:55;103266.59;;;7.78;46.78
6942;BME280;3510;43.200;27.920;2022-12-20T05:44:22;103264.84;;;7.52;46.72
6942;BME280;3510;43.200;27.920;2022-12-20T05:46:51;103257.28;;;7.58;47.33
6942;BME280;3510;43.200;27.920;2022-12-20T05:49:17;103242.34;;;8.46;45.19
6942;BME280;3510;43.200;27.920;2022-12-20T05:51:45;103225.41;;;7.88;46.27
6942;BME280;3510;43.200;27.920;2022-12-20T05:54:12;103262.09;;;7.75;46.65
6942;BME280;3510;43.200;27.920;2022-12-20T05:56:38;103258.19;;;7.59;46.54
6942;BME280;3510;43.200;27.920;2022-12-20T05:59:06;103257.47;;;7.60;46.18
6942;BME280;3510;43.200;27.920;2022-12-20T06:01:33;103232.59;;;6.69;47.91
6942;BME280;3510;43.200;27.920;2022-12-20T06:04:02;103259.22;;;7.11;47.49
6942;BME280;3510;43.200;27.920;2022-12-20T06:06:29;103251.28;;;6.90;47.51
6942;BME280;3510;43.200;27.920;2022-12-20T06:08:56;103261.56;;;7.78;45.88
6942;BME280;3510;43.200;27.920;2022-12-20T06:11:23;103262.09;;;8.19;44.63
6942;BME280;3510;43.200;27.920;2022-12-20T06:13:50;103271.47;;;7.34;47.15
6942;BME280;3510;43.200;27.920;2022-12-20T06:16:17;103261.44;;;7.52;47.09
6942;BME280;3510;43.200;27.920;2022-12-20T06:18:47;103266.66;;;6.98;48.40
6942;BME280;3510;43.200;27.920;2022-12-20T06:21:15;103267.44;;;7.28;47.19
6942;BME280;3510;43.200;27.920;2022-12-20T06:23:42;103264.13;;;8.34;45.67
6942;BME280;3510;43.200;27.920;2022-12-20T06:26:09;103201.25;;;7.58;46.81
6942;BME280;3510;43.200;27.920;2022-12-20T06:28:36;103243.44;;;7.36;48.01
6942;BME280;3510;43.200;27.920;2022-12-20T06:31:08;103252.38;;;8.46;45.79
6942;BME280;3510;43.200;27.920;2022-12-20T06:33:36;103258.00;;;7.88;47.16
6942;BME280;3510;43.200;27.920;2022-12-20T06:36:03;103259.81;;;8.20;46.85
6942;BME280;3510;43.200;27.920;2022-12-20T06:38:32;103269.41;;;8.05;47.03
6942;BME280;3510;43.200;27.920;2022-12-20T06:40:59;103269.69;;;7.51;47.68
6942;BME280;3510;43.200;27.920;2022-12-20T06:44:00;103269.41;;;8.05;47.15
6942;BME280;3510;43.200;27.920;2022-12-20T06:46:28;103260.66;;;7.46;48.42
6942;BME280;3510;43.200;27.920;2022-12-20T06:48:55;103252.28;;;7.58;48.36
6942;BME280;3510;43.200;27.920;2022-12-20T06:51:22;103273.28;;;7.90;46.94
6942;BME280;3510;43.200;27.920;2022-12-20T06:53:51;103269.03;;;8.58;46.07
6942;BME280;3510;43.200;27.920;2022-12-20T06:56:18;103246.06;;;8.24;47.08
6942;BME280;3510;43.200;27.920;2022-12-20T06:58:45;103265.91;;;8.41;46.79
6942;BME280;3510;43.200;27.920;2022-12-20T07:01:12;103270.56;;;7.70;47.09
6942;BME280;3510;43.200;27.920;2022-12-20T07:03:39;103268.16;;;7.95;46.73
6942;BME280;3510;43.200;27.920;2022-12-20T07:06:06;103264.03;;;8.84;44.50
6942;BME280;3510;43.200;27.920;2022-12-20T07:08:33;103268.13;;;8.83;44.65
6942;BME280;3510;43.200;27.920;2022-12-20T07:11:04;103222.25;;;8.59;44.13
6942;BME280;3510;43.200;27.920;2022-12-20T07:13:31;103222.38;;;7.78;45.93
6942;BME280;3510;43.200;27.920;2022-12-20T07:15:58;103232.34;;;7.34;47.25
6942;BME280;3510;43.200;27.920;2022-12-20T07:18:25;103216.75;;;8.17;45.17
6942;BME280;3510;43.200;27.920;2022-12-20T07:20:53;103259.22;;;8.29;44.85
6942;BME280;3510;43.200;27.920;2022-12-20T07:23:19;103255.78;;;8.59;44.73
6942;BME280;3510;43.200;27.920;2022-12-20T07:25:52;103247.06;;;8.76;43.51
6942;BME280;3510;43.200;27.920;2022-12-20T07:28:21;103226.19;;;9.28;43.58
6942;BME280;3510;43.200;27.920;2022-12-20T07:30:49;103232.59;;;9.78;42.39
6942;BME280;3510;43.200;27.920;2022-12-20T07:33:16;103193.59;;;9.35;42.82
6942;BME280;3510;43.200;27.920;2022-12-20T07:35:45;103192.56;;;9.07;44.17
6942;BME280;3510;43.200;27.920;2022-12-20T07:38:34;103083.22;;;8.51;44.06
6942;BME280;3510;43.200;27.920;2022-12-20T07:41:09;103173.59;;;9.89;42.84
6942;BME280;3510;43.200;27.920;2022-12-20T07:44:04;103091.16;;;8.54;44.74
6942;BME280;3510;43.200;27.920;2022-12-20T07:46:45;103185.75;;;9.26;44.45
6942;BME280;3510;43.200;27.920;2022-12-20T07:49:25;103171.72;;;9.21;43.52
6942;BME280;3510;43.200;27.920;2022-12-20T07:51:55;103224.97;;;9.18;44.20
6942;BME280;3510;43.200;27.920;2022-12-20T07:54:27;103216.06;;;9.08;44.84
6942;BME280;3510;43.200;27.920;2022-12-20T07:56:58;103193.22;;;8.86;45.60
6942;BME280;3510;43.200;27.920;2022-12-20T07:59:32;103194.22;;;8.56;46.13
6942;BME280;3510;43.200;27.920;2022-12-20T08:02:00;103198.97;;;8.47;46.58
6942;BME280;3510;43.200;27.920;2022-12-20T08:04:28;103212.22;;;8.71;46.29
6942;BME280;3510;43.200;27.920;2022-12-20T08:06:57;103192.81;;;8.19;47.18
6942;BME280;3510;43.200;27.920;2022-12-20T08:09:28;103172.63;;;8.25;47.02
6942;BME280;3510;43.200;27.920;2022-12-20T08:14:36;103163.72;;;8.53;46.38
6942;BME280;3510;43.200;27.920;2022-12-20T08:17:03;103143.63;;;8.14;46.71
6942;BME280;3510;43.200;27.920;2022-12-20T08:19:30;103169.91;;;8.87;46.60
6942;BME280;3510;43.200;27.920;2022-12-20T08:21:57;103152.97;;;8.66;46.24
6942;BME280;3510;43.200;27.920;2022-12-20T08:24:24;103196.06;;;8.57;47.75
6942;BME280;3510;43.200;27.920;2022-12-20T08:26:52;103195.72;;;8.73;47.09
6942;BME280;3510;43.200;27.920;2022-12-20T08:29:37;103193.53;;;8.69;47.43
6942;BME280;3510;43.200;27.920;2022-12-20T08:32:16;103125.47;;;8.35;47.11
6942;BME280;3510;43.200;27.920;2022-12-20T08:34:52;103145.13;;;8.83;46.76
6942;BME280;3510;43.200;27.920;2022-12-20T08:37:38;103103.09;;;9.15;45.79
6942;BME280;3510;43.200;27.920;2022-12-20T08:40:11;103133.72;;;9.25;45.73
6942;BME280;3510;43.200;27.920;2022-12-20T08:43:23;103148.34;;;9.55;44.95
6942;BME280;3510;43.200;27.920;2022-12-20T08:46:05;103128.75;;;9.52;44.76
6942;BME280;3510;43.200;27.920;2022-12-20T08:48:36;103073.75;;;9.21;45.24
6942;BME280;3510;43.200;27.920;2022-12-20T08:51:06;103167.34;;;10.19;44.61
6942;BME280;3510;43.200;27.920;2022-12-20T08:53:34;103162.22;;;10.05;44.18
6942;BME280;3510;43.200;27.920;2022-12-20T08:56:05;103132.94;;;10.06;44.24
6942;BME280;3510;43.200;27.920;2022-12-20T08:58:32;103106.63;;;9.69;44.74
6942;BME280;3510;43.200;27.920;2022-12-20T09:01:00;103061.34;;;9.97;43.82
6942;BME280;3510;43.200;27.920;2022-12-20T09:03:30;103152.66;;;11.05;42.25
6942;BME280;3510;43.200;27.920;2022-12-20T09:05:58;103071.47;;;11.08;41.53
6942;BME280;3510;43.200;27.920;2022-12-20T09:08:25;103118.16;;;11.40;40.36
6942;BME280;3510;43.200;27.920;2022-12-20T09:10:53;103103.56;;;11.16;41.77
6942;BME280;3510;43.200;27.920;2022-12-20T09:13:20;103118.13;;;12.04;40.61
6942;BME280;3510;43.200;27.920;2022-12-20T09:15:47;103084.06;;;10.86;42.29
6942;BME280;3510;43.200;27.920;2022-12-20T09:18:14;103061.53;;;10.25;42.98
6942;BME280;3510;43.200;27.920;2022-12-20T09:20:59;103048.75;;;10.72;41.84
6942;BME280;3510;43.200;27.920;2022-12-20T09:23:36;103099.03;;;11.78;40.40
6942;BME280;3510;43.200;27.920;2022-12-20T09:26:18;103130.09;;;10.85;42.07
6942;BME280;3510;43.200;27.920;2022-12-20T09:28:59;103108.78;;;11.46;40.49
6942;BME280;3510;43.200;27.920;2022-12-20T09:31:39;103104.97;;;11.14;41.67
6942;BME280;3510;43.200;27.920;2022-12-20T09:34:20;103032.97;;;11.09;41.18
6942;BME280;3510;43.200;27.920;2022-12-20T09:43:26;103104.13;;;12.44;39.13
6942;BME280;3510;43.200;27.920;2022-12-20T09:45:55;103069.94;;;13.15;37.97
6942;BME280;3510;43.200;27.920;2022-12-20T09:48:37;103049.53;;;12.60;38.31
6942;BME280;3510;43.200;27.920;2022-12-20T09:51:13;103060.16;;;11.54;40.20
6942;BME280;3510;43.200;27.920;2022-12-20T09:54:04;103083.66;;;12.12;39.66
6942;BME280;3510;43.200;27.920;2022-12-20T09:56:36;103064.25;;;11.97;39.77
6942;BME280;3510;43.200;27.920;2022-12-20T09:59:10;102997.56;;;11.80;38.99
6942;BME280;3510;43.200;27.920;2022-12-20T10:01:42;103079.75;;;13.04;38.44
6942;BME280;3510;43.200;27.920;2022-12-20T10:04:16;103049.03;;;12.86;37.90
6942;BME280;3510;43.200;27.920;2022-12-20T10:06:58;103065.63;;;13.14;37.97
6942;BME280;3510;43.200;27.920;2022-12-20T10:10:00;103009.16;;;12.53;38.64
6942;BME280;3510;43.200;27.920;2022-12-20T10:12:36;103063.97;;;13.60;37.60
6942;BME280;3510;43.200;27.920;2022-12-20T10:15:18;103061.41;;;13.28;37.78
6942;BME280;3510;43.200;27.920;2022-12-20T10:18:15;103061.44;;;13.60;37.25
6942;BME280;3510;43.200;27.920;2022-12-20T10:20:53;103058.91;;;13.99;36.66
6942;BME280;3510;43.200;27.920;2022-12-20T10:23:26;103060.84;;;13.86;37.02
6942;BME280;3510;43.200;27.920;2022-12-20T10:26:10;103015.38;;;13.24;37.85
6942;BME280;3510;43.200;27.920;2022-12-20T10:28:40;103032.66;;;13.51;37.91
6942;BME280;3510;43.200;27.920;2022-12-20T10:31:15;102991.44;;;13.99;36.65
6942;BME280;3510;43.200;27.920;2022-12-20T10:33:44;102981.31;;;14.97;34.70
6942;BME280;3510;43.200;27.920;2022-12-20T10:36:19;103019.34;;;14.64;35.42
6942;BME280;3510;43.200;27.920;2022-12-20T10:38:50;103028.84;;;14.02;36.80
6942;BME280;3510;43.200;27.920;2022-12-20T10:41:19;103012.16;;;14.60;35.61
6942;BME280;3510;43.200;27.920;2022-12-20T10:43:49;103004.31;;;13.94;36.96
6942;BME280;3510;43.200;27.920;2022-12-20T10:46:20;102980.19;;;14.29;36.63
6942;BME280;3510;43.200;27.920;2022-12-20T10:48:47;102997.78;;;15.43;35.19
6942;BME280;3510;43.200;27.920;2022-12-20T10:51:17;102981.34;;;16.52;33.31
6942;BME280;3510;43.200;27.920;2022-12-20T10:53:53;102966.91;;;15.90;34.15
6942;BME280;3510;43.200;27.920;2022-12-20T10:59:52;102932.09;;;16.24;33.00
6942;BME280;3510;43.200;27.920;2022-12-20T11:02:39;102995.63;;;16.86;32.14
6942;BME280;3510;43.200;27.920;2022-12-20T11:05:21;102985.44;;;16.95;32.07
6942;BME280;3510;43.200;27.920;2022-12-20T11:07:53;102986.97;;;17.21;31.96
6942;BME280;3510;43.200;27.920;2022-12-20T11:10:23;102974.50;;;16.51;32.70
6942;BME280;3510;43.200;27.920;2022-12-20T11:12:54;102964.38;;;16.16;33.58
6942;BME280;3510;43.200;27.920;2022-12-20T11:15:23;102951.38;;;16.13;33.60
6942;BME280;3510;43.200;27.920;2022-12-20T11:17:57;102957.41;;;16.59;32.81
6942;BME280;3510;43.200;27.920;2022-12-20T11:20:29;102944.72;;;17.23;31.92
6942;BME280;3510;43.200;27.920;2022-12-20T11:23:09;102950.69;;;17.51;31.72
6942;BME280;3510;43.200;27.920;2022-12-20T11:25:50;102951.63;;;16.96;32.38
6942;BME280;3510;43.200;27.920;2022-12-20T11:28:30;102940.19;;;17.10;32.42
6942;BME280;3510;43.200;27.920;2022-12-20T11:31:10;102938.16;;;17.25;32.04
6942;BME280;3510;43.200;27.920;2022-12-20T11:33:51;102917.06;;;16.89;32.29
6942;BME280;3510;43.200;27.920;2022-12-20T11:36:29;102936.41;;;16.87;32.55
6942;BME280;3510;43.200;27.920;2022-12-20T11:39:04;102917.91;;;16.62;33.11
6942;BME280;3510;43.200;27.920;2022-12-20T11:41:43;102928.41;;;15.94;34.38
6942;BME280;3510;43.200;27.920;2022-12-20T11:44:14;102923.47;;;16.58;33.71
6942;BME280;3510;43.200;27.920;2022-12-20T11:46:47;102912.88;;;16.45;33.94
6942;BME280;3510;43.200;27.920;2022-12-20T11:52:21;102920.03;;;16.49;34.01
6942;BME280;3510;43.200;27.920;2022-12-20T11:54:57;102901.63;;;16.07;34.62
6942;BME280;3510;43.200;27.920;2022-12-20T11:57:34;102894.03;;;15.72;35.03
6942;BME280;3510;43.200;27.920;2022-12-20T12:00:06;102890.31;;;15.94;34.67
6942;BME280;3510;43.200;27.920;2022-12-20T12:02:36;102888.19;;;15.47;35.59
6942;BME280;3510;43.200;27.920;2022-12-20T12:05:19;102883.63;;;16.31;34.29
6942;BME280;3510;43.200;27.920;2022-12-20T12:07:53;102876.47;;;14.88;36.45
6942;BME280;3510;43.200;27.920;2022-12-20T12:10:25;102879.53;;;15.97;34.85
6942;BME280;3510;43.200;27.920;2022-12-20T12:12:57;102872.22;;;16.45;34.31
6942;BME280;3510;43.200;27.920;2022-12-20T12:15:32;102880.72;;;16.01;35.07
6942;BME280;3510;43.200;27.920;2022-12-20T12:18:06;102878.78;;;16.88;34.11
6942;BME280;3510;43.200;27.920;2022-12-20T12:20:44;102883.09;;;15.64;35.22
6942;BME280;3510;43.200;27.920;2022-12-20T12:23:21;102876.56;;;14.48;37.34
6942;BME280;3510;43.200;27.920;2022-12-20T12:25:52;102878.56;;;14.26;37.77
6942;BME280;3510;43.200;27.920;2022-12-20T12:28:20;102884.50;;;14.26;38.10
6942;BME280;3510;43.200;27.920;2022-12-20T12:30:53;102875.19;;;15.18;36.36
6942;BME280;3510;43.200;27.920;2022-12-20T12:33:26;102854.91;;;15.61;35.74
6942;BME280;3510;43.200;27.920;2022-12-20T12:36:25;102866.25;;;15.21;36.63
6942;BME280;3510;43.200;27.920;2022-12-20T12:39:19;102831.97;;;14.74;36.49
6942;BME280;3510;43.200;27.920;2022-12-20T12:44:37;102874.06;;;14.23;38.17
6942;BME280;3510;43.200;27.920;2022-12-20T12:47:05;102867.81;;;14.53;37.80
6942;BME280;3510;43.200;27.920;2022-12-20T12:49:36;102866.34;;;14.55;37.80
6942;BME280;3510;43.200;27.920;2022-12-20T12:52:06;102860.25;;;15.64;36.16
6942;BME280;3510;43.200;27.920;2022-12-20T12:54:34;102864.03;;;15.51;35.85
6942;BME280;3510;43.200;27.920;2022-12-20T12:57:02;102861.56;;;16.13;34.80
6942;BME280;3510;43.200;27.920;2022-12-20T12:59:43;102870.28;;;14.11;38.41
6942;BME280;3510;43.200;27.920;2022-12-20T13:02:22;102864.09;;;14.49;37.87
6942;BME280;3510;43.200;27.920;2022-12-20T13:04:53;102856.16;;;14.80;37.42
6942;BME280;3510;43.200;27.920;2022-12-20T13:07:26;102863.25;;;14.66;37.40
6942;BME280;3510;43.200;27.920;2022-12-20T13:09:53;102855.19;;;15.30;36.52
6942;BME280;3510;43.200;27.920;2022-12-20T13:18:02;102858.78;;;15.92;35.21
6942;BME280;3510;43.200;27.920;2022-12-20T13:20:42;102861.63;;;15.95;35.31
6942;BME280;3510;43.200;27.920;2022-12-20T13:23:30;102849.84;;;15.61;35.88
6942;BME280;3510;43.200;27.920;2022-12-20T13:25:57;102845.94;;;15.30;36.79
6942;BME280;3510;43.200;27.920;2022-12-20T13:28:43;102861.03;;;15.72;35.71
6942;BME280;3510;43.200;27.920;2022-12-20T13:34:22;102859.75;;;16.20;35.47
6942;BME280;3510;43.200;27.920;2022-12-20T13:39:31;102853.53;;;15.30;36.67
6942;BME280;3510;43.200;27.920;2022-12-20T13:42:13;102849.53;;;14.64;37.76
6942;BME280;3510;43.200;27.920;2022-12-20T13:44:42;102841.72;;;14.96;37.03
6942;BME280;3510;43.200;27.920;2022-12-20T13:47:25;102840.44;;;15.52;36.21
6942;BME280;3510;43.200;27.920;2022-12-20T13:49:53;102846.66;;;13.95;38.30
6942;BME280;3510;43.200;27.920;2022-12-20T13:52:26;102840.97;;;14.80;37.14
6942;BME280;3510;43.200;27.920;2022-12-20T13:54:56;102837.28;;;14.60;37.50
6942;BME280;3510;43.200;27.920;2022-12-20T13:57:28;102833.25;;;15.21;36.54
6942;BME280;3510;43.200;27.920;2022-12-20T13:59:56;102830.84;;;15.23;36.59
6942;BME280;3510;43.200;27.920;2022-12-20T14:02:26;102829.22;;;15.58;35.68
6942;BME280;3510;43.200;27.920;2022-12-20T14:04:55;102823.28;;;15.66;35.46
6942;BME280;3510;43.200;27.920;2022-12-20T14:07:23;102821.16;;;15.28;36.27
6942;BME280;3510;43.200;27.920;2022-12-20T14:09:54;102813.25;;;15.07;36.43
6942;BME280;3510;43.200;27.920;2022-12-20T14:12:23;102815.44;;;14.78;36.92
6942;BME280;3510;43.200;27.920;2022-12-20T14:14:50;102809.69;;;14.13;38.43
6942;BME280;3510;43.200;27.920;2022-12-20T14:17:17;102803.34;;;14.00;38.37
6942;BME280;3510;43.200;27.920;2022-12-20T14:20:00;102796.19;;;14.71;37.73
6942;BME280;3510;43.200;27.920;2022-12-20T14:22:27;102800.34;;;14.29;38.31
6942;BME280;3510;43.200;27.920;2022-12-20T14:24:53;102792.66;;;14.12;38.58
6942;BME280;3510;43.200;27.920;2022-12-20T14:27:20;102775.78;;;14.79;37.60
6942;BME280;3510;43.200;27.920;2022-12-20T14:29:49;102785.69;;;14.09;38.66
6942;BME280;3510;43.200;27.920;2022-12-20T14:32:16;102780.97;;;14.71;37.23
6942;BME280;3510;43.200;27.920;2022-12-20T14:34:43;102780.88;;;13.79;39.16
6942;BME280;3510;43.200;27.920;2022-12-20T14:40:00;102770.91;;;14.47;38.10
6942;BME280;3510;43.200;27.920;2022-12-20T14:42:28;102771.69;;;14.13;38.60
6942;BME280;3510;43.200;27.920;2022-12-20T14:45:03;102770.59;;;13.77;39.09
6942;BME280;3510;43.200;27.920;2022-12-20T14:47:29;102768.63;;;14.33;38.23
6942;BME280;3510;43.200;27.920;2022-12-20T14:49:57;102765.66;;;14.37;38.06
6942;BME280;3510;43.200;27.920;2022-12-20T14:52:25;102763.88;;;12.97;40.66
6942;BME280;3510;43.200;27.920;2022-12-20T14:54:56;102759.16;;;12.84;41.28
6942;BME280;3510;43.200;27.920;2022-12-20T14:57:24;102767.56;;;12.76;41.54
6942;BME280;3510;43.200;27.920;2022-12-20T14:59:56;102765.81;;;13.16;40.41
6942;BME280;3510;43.200;27.920;2022-12-20T15:02:32;102767.06;;;13.35;40.03
6942;BME280;3510;43.200;27.920;2022-12-20T15:04:59;102756.47;;;12.83;41.21